Time;durP1;ratioP1;P1;durP2;ratioP2;P2;SDS_P1;SDS_P2;PMS_P1;PMS_P2;Temp;Humidity;BMP_temperature;BMP_pressure;BME280_temperature;BME280_humidity;BME280_pressure;Samples;Min_cycle;Max_cycle;Signal;HPM_P1;HPM_P2
2022/03/05 08:05:45;;;;;;;;;;;128.40;1971.20;;;;;;6263811;23;19915;-89
2022/03/05 08:11:16;;;;;;;;;;;;;;;;;;6255062;23;19910;-91
2022/03/05 08:13:41;;;;;;;;;;;154.20;1868.80;;;;;;6228892;23;19935;-90
2022/03/05 08:16:07;;;;;;;;;;;154.20;1817.60;;;;;;6234723;23;19900;-91
2022/03/05 08:18:33;;;;;;;;;;;154.40;1792.00;;;;;;6233389;23;19919;-91
2022/03/05 08:21:00;;;;;;;;;;;179.20;1766.40;;;;;;6263042;23;19900;-90
2022/03/05 08:23:27;;;;;;;;;;;179.40;1740.80;;;;;;6213635;23;20010;-90
2022/03/05 08:26:10;;;;;;;;;;;179.60;1740.80;;;;;;6174711;23;20251;-91
2022/03/05 08:28:37;;;;;;;;;;;179.80;1689.60;;;;;;6174132;23;19908;-91
2022/03/05 08:31:14;;;;;;;;;;;180.10;1664.00;;;;;;6173760;23;19907;-90
2022/03/05 08:33:58;;;;;;;;;;;204.90;1638.40;;;;;;6174041;23;19885;-93
2022/03/05 08:36:24;;;;;;;;;;;230.40;1612.80;;;;;;6136184;23;19928;-93
2022/03/05 08:38:50;;;;;;;;;;;307.90;1356.80;;;;;;6155609;23;19900;-92
2022/03/05 08:41:16;;;;;;;;;;;358.40;1254.40;;;;;;6155859;23;19974;-93
2022/03/05 08:43:42;;;;;;;;;;;384.30;1152.00;;;;;;6155728;23;19905;-91
2022/03/05 08:46:08;;;;;;;;;;;;;;;;;;6155345;23;19908;-88
2022/03/05 08:48:34;;;;;;;;;;;;;;;;;;6130843;23;19909;-87
2022/03/05 08:51:00;;;;;;;;;;;461.30;921.60;;;;;;6130966;23;19900;-90
2022/03/05 08:53:26;;;;;;;;;;;461.60;896.00;;;;;;6155561;23;20326;-88
2022/03/05 08:55:52;;;;;;;;;;;486.90;870.40;;;;;;6154497;23;19935;-89
2022/03/05 08:58:18;;;;;;;;;;;512.70;819.20;;;;;;6155072;23;19947;-89
2022/03/05 09:00:43;;;;;;;;;;;538.30;819.20;;;;;;6155026;23;19971;-89
2022/03/05 09:03:09;;;;;;;;;;;563.20;793.60;;;;;;6196568;23;19899;-93
2022/03/05 09:05:35;;;;;;;;;;;563.60;768.00;;;;;;6221021;23;20285;-92
2022/03/05 09:08:00;;;;;;;;;;;564.00;716.80;;;;;;6247570;23;20228;-92
2022/03/05 09:10:26;;;;;;;;;;;589.20;742.40;;;;;;6220899;23;19905;-95
2022/03/05 09:12:51;;;;;;;;;;;589.20;716.80;;;;;;6221352;23;19906;-93
2022/03/05 09:15:17;;;;;;;;;;;589.70;716.80;;;;;;6221343;23;19905;-92
2022/03/05 09:17:43;;;;;;;;;;;614.80;716.80;;;;;;6220893;23;19906;-92
2022/03/05 09:20:11;;;;;;;;;;;640.00;691.20;;;;;;6220969;23;19907;-92
2022/03/05 09:22:36;;;;;;;;;;;640.40;691.20;;;;;;6221039;23;20237;-91
2022/03/05 09:25:02;;;;;;;;;;;665.80;665.60;;;;;;6247479;23;19899;-87
2022/03/05 09:27:29;;;;;;;;;;;665.90;640.00;;;;;;6247617;23;19907;-86
2022/03/05 09:29:54;;;;;;;;;;;666.30;665.60;;;;;;6220675;23;19900;-86
2022/03/05 09:32:20;;;;;;;;;;;691.70;665.60;;;;;;6220849;23;19982;-85
2022/03/05 09:34:46;;;;;;;;;;;666.00;665.60;;;;;;6221006;23;19982;-94
2022/03/05 09:37:12;;;;;;;;;;;691.40;665.60;;;;;;6221252;23;19900;-85
2022/03/05 09:39:38;;;;;;;;;;;717.00;640.00;;;;;;6249302;23;19907;-95
2022/03/05 09:42:09;;;;;;;;;;;717.10;614.40;;;;;;6253083;23;19900;-93
2022/03/05 09:44:38;;;;;;;;;;;691.90;588.80;;;;;;6235008;23;19899;-96
2022/03/05 09:47:04;;;;;;;;;;;;;;;;;;6222656;23;19899;-92
2022/03/05 09:49:30;;;;;;;;;;;640.50;614.40;;;;;;6221185;23;19907;-88
2022/03/05 09:51:58;;;;;;;;;;;691.20;640.00;;;;;;6220892;23;19900;-87
2022/03/05 09:54:24;;;;;;;;;;;;;;;;;;6220772;23;19906;-86
2022/03/05 09:56:50;;;;;;;;;;;537.60;716.80;;;;;;6220724;23;19899;-87
2022/03/05 09:59:16;;;;;;;;;;;461.00;793.60;;;;;;6220503;23;19907;-88
2022/03/05 10:01:41;;;;;;;;;;;460.90;819.20;;;;;;6220435;23;19916;-89
2022/03/05 10:04:18;;;;;;;;;;;588.80;742.40;;;;;;6220276;23;20225;-90
2022/03/05 10:06:43;;;;;;;;;;;640.40;614.40;;;;;;6220362;23;19906;-91
2022/03/05 10:09:20;;;;;;;;;;;665.90;614.40;;;;;;6219383;23;19982;-88
2022/03/05 10:11:45;;;;;;;;;;;538.00;691.20;;;;;;6218483;23;20297;-88
2022/03/05 10:14:15;;;;;;;;;;;460.90;844.80;;;;;;6246247;23;19935;-89
2022/03/05 10:16:41;;;;;;;;;;;435.70;819.20;;;;;;6246129;23;19966;-88
2022/03/05 10:19:17;;;;;;;;;;;589.60;716.80;;;;;;6219352;23;19954;-88
2022/03/05 10:21:55;;;;;;;;;;;691.30;614.40;;;;;;6219711;23;19904;-89
2022/03/05 10:24:29;;;;;;;;;;;589.70;640.00;;;;;;6245963;23;19923;-88
2022/03/05 10:26:55;;;;;;;;;;;;;;;;;;6220146;23;19899;-88
2022/03/05 10:29:22;;;;;;;;;;;461.20;844.80;;;;;;6219790;23;20240;-88
2022/03/05 10:31:54;;;;;;;;;;;460.90;819.20;;;;;;6220599;23;19982;-89
2022/03/05 10:34:20;;;;;;;;;;;563.90;742.40;;;;;;6220587;23;20278;-87
2022/03/05 10:36:56;;;;;;;;;;;640.20;614.40;;;;;;6246806;23;19903;-89
2022/03/05 10:39:26;;;;;;;;;;;691.80;588.80;;;;;;6220488;23;19986;-92
2022/03/05 10:41:52;;;;;;;;;;;743.00;537.60;;;;;;6220244;23;19935;-88
2022/03/05 10:44:18;;;;;;;;;;;742.90;537.60;;;;;;6220374;23;19900;-89
2022/03/05 10:46:46;;;;;;;;;;;742.90;537.60;;;;;;6245827;23;19953;-88
2022/03/05 10:49:19;;;;;;;;;;;742.90;537.60;;;;;;6219181;23;20276;-88
2022/03/05 10:51:49;;;;;;;;;;;640.80;588.80;;;;;;6218911;23;19922;-89
2022/03/05 10:54:15;;;;;;;;;;;;;;;;;;6219250;23;19900;-89
2022/03/05 10:56:41;;;;;;;;;;;;;;;;;;6219267;23;19934;-88
2022/03/05 10:59:09;;;;;;;;;;;486.40;742.40;;;;;;6220010;23;19911;-89
2022/03/05 11:01:37;;;;;;;;;;;435.90;768.00;;;;;;6219700;23;19912;-88
2022/03/05 11:04:03;;;;;;;;;;;410.20;844.80;;;;;;6246184;23;19904;-88
2022/03/05 11:06:29;;;;;;;;;;;;;;;;;;6219911;23;19899;-88
2022/03/05 11:08:55;;;;;;;;;;;;;;;;;;6220379;23;19931;-88
2022/03/05 11:11:22;;;;;;;;;;;;;;;;;;6246746;23;19908;-86
2022/03/05 11:13:47;;;;;;;;;;;333.50;1024.00;;;;;;6220086;23;19899;-88
2022/03/05 11:16:13;;;;;;;;;;;;;;;;;;6246901;23;19960;-89
2022/03/05 11:18:39;;;;;;;;;;;;;;;;;;6220807;23;19899;-91
2022/03/05 11:21:05;;;;;;;;;;;;;;;;;;6220756;23;19903;-90
2022/03/05 11:23:31;;;;;;;;;;;;;;;;;;6221194;23;19899;-88
2022/03/05 11:25:57;;;;;;;;;;;;;;;;;;6221151;23;19945;-89
2022/03/05 11:28:23;;;;;;;;;;;;;;;;;;6221689;23;19907;-88
2022/03/05 11:30:49;;;;;;;;;;;;;;;;;;6221734;23;19907;-88
2022/03/05 11:33:15;;;;;;;;;;;;;;;;;;6221816;23;20325;-89
2022/03/05 11:35:43;;;;;;;;;;;;;;;;;;6221537;23;19899;-90
2022/03/05 11:38:09;;;;;;;;;;;;;;;;;;6221894;23;19903;-88
2022/03/05 11:40:35;;;;;;;;;;;;;;;;;;6221485;23;19921;-89
2022/03/05 11:43:01;;;;;;;;;;;;;;;;;;6248088;23;19900;-90
2022/03/05 11:45:27;;;;;;;;;;;;;;;;;;6220829;23;19903;-91
2022/03/05 11:47:55;;;;;;;;;;;;;;;;;;6220823;23;19991;-90
2022/03/05 11:50:21;;;;;;;;;;;;;;;;;;6221667;23;19953;-91
2022/03/05 11:52:47;;;;;;;;;;;;;;;;;;6221567;23;19899;-91
2022/03/05 11:55:13;;;;;;;;;;;;;;;;;;6248589;23;19953;-90
2022/03/05 11:57:39;;;;;;;;;;;;;;;;;;6248666;23;20018;-89
2022/03/05 12:00:05;;;;;;;;;;;;;;;;;;6222047;23;19899;-89
2022/03/05 12:02:31;;;;;;;;;;;;;;;;;;6221677;23;19918;-90
2022/03/05 12:04:57;;;;;;;;;;;;;;;;;;6221968;23;19900;-90
2022/03/05 12:07:24;;;;;;;;;;;;;;;;;;6221711;23;19907;-90
2022/03/05 12:09:50;;;;;;;;;;;;;;;;;;6221957;23;20250;-90
2022/03/05 12:12:16;;;;;;;;;;;;;;;;;;6221844;23;19899;-90
2022/03/05 12:14:42;;;;;;;;;;;;;;;;;;6221929;23;19903;-89
2022/03/05 12:17:07;;;;;;;;;;;;;;;;;;6222643;23;19927;-89
2022/03/05 12:19:33;;;;;;;;;;;;;;;;;;6221924;23;19946;-88
2022/03/05 12:22:00;;;;;;;;;;;;;;;;;;6248630;23;19938;-88
2022/03/05 12:24:27;;;;;;;;;;;;;;;;;;6248635;23;19899;-88
2022/03/05 12:26:53;;;;;;;;;;;;;;;;;;6221681;23;20308;-88
2022/03/05 12:29:22;;;;;;;;;;;;;;;;;;6221380;23;19971;-87
2022/03/05 12:31:48;;;;;;;;;;;;;;;;;;6221801;23;19907;-87
2022/03/05 12:34:14;;;;;;;;;;;;;;;;;;6248225;23;20332;-88
2022/03/05 12:36:40;;;;;;;;;;;;;;;;;;6221681;23;20275;-88
2022/03/05 12:39:06;;;;;;;;;;;;;;;;;;6221598;23;19974;-88
2022/03/05 12:41:32;;;;;;;;;;;;;;;;;;6221757;23;19903;-88
2022/03/05 12:43:58;;;;;;;;;;;;;;;;;;6248112;23;19954;-87
2022/03/05 12:46:24;;;;;;;;;;;359.10;972.80;;;;;;6221096;23;20221;-88
2022/03/05 12:48:50;;;;;;;;;;;;;;;;;;6221404;23;19930;-88
2022/03/05 12:51:16;;;;;;;;;;;461.50;793.60;;;;;;6248289;23;20416;-89
2022/03/05 12:53:42;;;;;;;;;;;435.30;819.20;;;;;;6221392;23;19903;-87
2022/03/05 12:56:08;;;;;;;;;;;359.10;1228.80;;;;;;6221458;23;20324;-89
2022/03/05 12:58:34;;;;;;;;;;;;;;;;;;6221479;23;19907;-94
2022/03/05 13:01:00;;;;;;;;;;;;;;;;;;6221552;23;19911;-92
2022/03/05 13:03:26;;;;;;;;;;;;;;;;;;6221773;23;20244;-93
2022/03/05 13:05:52;;;;;;;;;;;;;;;;;;6221837;23;19927;-95
2022/03/05 13:08:18;;;;;;;;;;;;;;;;;;6221567;23;19914;-92
2022/03/05 13:10:48;;;;;;;;;;;512.60;768.00;;;;;;6221548;23;19899;-93
2022/03/05 13:13:14;;;;;;;;;;;563.80;742.40;;;;;;6221292;23;19982;-92
2022/03/05 13:15:42;;;;;;;;;;;589.70;665.60;;;;;;6221251;23;19926;-92
2022/03/05 13:18:10;;;;;;;;;;;537.70;716.80;;;;;;6221280;23;19907;-91
2022/03/05 13:20:36;;;;;;;;;;;460.80;793.60;;;;;;6221320;23;19927;-93
2022/03/05 13:23:02;;;;;;;;;;;410.50;870.40;;;;;;6221230;23;20194;-91
2022/03/05 13:25:29;;;;;;;;;;;359.10;947.20;;;;;;6220885;23;19953;-92
2022/03/05 13:27:55;;;;;;;;;;;333.60;947.20;;;;;;6221116;23;19994;-93
2022/03/05 13:30:26;;;;;;;;;;;333.00;998.40;;;;;;6221320;23;19900;-93
2022/03/05 13:32:52;;;;;;;;;;;307.90;998.40;;;;;;6221447;23;19950;-93
2022/03/05 13:35:18;;;;;;;;;;;307.90;1049.60;;;;;;6221365;23;19953;-91
2022/03/05 13:37:47;;;;;;;;;;;410.00;896.00;;;;;;6221222;23;19900;-89
2022/03/05 13:40:14;;;;;;;;;;;614.70;691.20;;;;;;6221233;23;19940;-91
2022/03/05 13:42:40;;;;;;;;;;;640.30;588.80;;;;;;6220970;23;19907;-92
2022/03/05 13:45:07;;;;;;;;;;;563.30;716.80;;;;;;6221075;23;19899;-89
2022/03/05 13:47:38;;;;;;;;;;;589.10;640.00;;;;;;6225020;23;19900;-89
2022/03/05 13:50:04;;;;;;;;;;;512.80;691.20;;;;;;6224970;23;19900;-95
2022/03/05 13:52:31;;;;;;;;;;;486.60;716.80;;;;;;6221435;23;20420;-95
2022/03/05 13:55:26;;;;;;;;;;;460.90;819.20;;;;;;6227540;23;19884;-96
2022/03/05 13:58:00;;;;;;;;;;;512.60;691.20;;;;;;6215633;23;19973;-92
2022/03/05 14:00:27;;;;;;;;;;;486.80;716.80;;;;;;6223406;23;20344;-93
2022/03/05 14:02:54;;;;;;;;;;;435.20;793.60;;;;;;6221178;23;20355;-94
2022/03/05 14:05:28;;;;;;;;;;;384.20;870.40;;;;;;6221411;23;19899;-93
2022/03/05 14:07:53;;;;;;;;;;;;;;;;;;6221185;23;19907;-93
2022/03/05 14:10:20;;;;;;;;;;;;;;;;;;6222314;23;19942;-94
2022/03/05 14:12:46;;;;;;;;;;;;;;;;;;6224524;23;20324;-95
2022/03/05 14:15:11;;;;;;;;;;;282.40;1075.20;;;;;;6222427;23;19958;-94
2022/03/05 14:17:40;;;;;;;;;;;282.40;1100.80;;;;;;6222065;23;19927;-95
2022/03/05 14:20:06;;;;;;;;;;;;;;;;;;6222231;23;19899;-94
2022/03/05 14:22:32;;;;;;;;;;;;;;;;;;6221426;23;19949;-92
2022/03/05 14:24:58;;;;;;;;;;;;;;;;;;6221303;23;20033;-92
2022/03/05 14:27:24;;;;;;;;;;;;;;;;;;6220701;23;19899;-93
2022/03/05 14:29:50;;;;;;;;;;;;;;;;;;6221002;23;19970;-96
2022/03/05 14:32:16;;;;;;;;;;;;;;;;;;6221057;23;19926;-94
2022/03/05 14:34:42;;;;;;;;;;;;;;;;;;6221123;23;20035;-94
2022/03/05 14:37:08;;;;;;;;;;;;;;;;;;6221279;23;20335;-92
2022/03/05 14:39:34;;;;;;;;;;;;;;;;;;6220624;23;20322;-94
2022/03/05 14:42:00;;;;;;;;;;;;;;;;;;6220884;23;19923;-96
2022/03/05 14:44:26;;;;;;;;;;;;;;;;;;6221119;23;19945;-93
2022/03/05 14:46:52;;;;;;;;;;;;;;;;;;6220827;23;19926;-93
2022/03/05 14:49:18;;;;;;;;;;;;;;;;;;6220249;23;20347;-92
2022/03/05 14:51:44;;;;;;;;;;;256.00;1152.00;;;;;;6220866;23;19906;-93
2022/03/05 14:54:10;;;;;;;;;;;256.00;1152.00;;;;;;6222751;23;19899;-92
2022/03/05 14:56:37;;;;;;;;;;;256.00;1177.60;;;;;;6222769;23;19906;-92
2022/03/05 14:59:04;;;;;;;;;;;231.30;1177.60;;;;;;6222708;23;19899;-92
2022/03/05 15:01:30;;;;;;;;;;;231.30;1177.60;;;;;;6222477;23;19949;-92
2022/03/05 15:03:56;;;;;;;;;;;231.20;1203.20;;;;;;6222598;23;19906;-92
2022/03/05 15:06:21;;;;;;;;;;;231.10;1203.20;;;;;;6222693;23;19935;-93
2022/03/05 15:08:47;;;;;;;;;;;231.10;1203.20;;;;;;6222550;23;20371;-92
2022/03/05 15:11:13;;;;;;;;;;;231.10;1177.60;;;;;;6222386;23;19899;-92
2022/03/05 15:13:39;;;;;;;;;;;231.20;1177.60;;;;;;6222499;23;19899;-94
2022/03/05 15:16:05;;;;;;;;;;;231.10;1203.20;;;;;;6222688;23;19907;-92
2022/03/05 15:18:30;;;;;;;;;;;231.10;1203.20;;;;;;6222808;23;19900;-94
2022/03/05 15:20:56;;;;;;;;;;;231.10;1203.20;;;;;;6222689;23;20336;-94
2022/03/05 15:23:22;;;;;;;;;;;231.00;1228.80;;;;;;6222798;23;19910;-94
2022/03/05 15:25:48;;;;;;;;;;;231.00;1228.80;;;;;;6222803;23;20202;-93
2022/03/05 15:28:13;;;;;;;;;;;231.00;1228.80;;;;;;6222274;23;19912;-93
2022/03/05 15:30:40;;;;;;;;;;;231.00;1228.80;;;;;;6222706;23;19899;-94
2022/03/05 15:33:05;;;;;;;;;;;231.00;1228.80;;;;;;6222394;23;19978;-92
2022/03/05 15:35:34;;;;;;;;;;;231.00;1228.80;;;;;;6221995;23;19943;-92
2022/03/05 15:38:00;;;;;;;;;;;230.90;1203.20;;;;;;6222366;23;19899;-92
2022/03/05 15:40:26;;;;;;;;;;;230.90;1228.80;;;;;;6222395;23;19907;-94
2022/03/05 15:42:52;;;;;;;;;;;230.90;1228.80;;;;;;6222357;23;19905;-93
2022/03/05 15:45:19;;;;;;;;;;;230.70;1254.40;;;;;;6222342;23;19900;-94
2022/03/05 15:47:44;;;;;;;;;;;230.70;1280.00;;;;;;6222291;23;19908;-94
2022/03/05 15:50:13;;;;;;;;;;;230.70;1280.00;;;;;;6222333;23;19906;-92
2022/03/05 15:52:39;;;;;;;;;;;230.60;1305.60;;;;;;6222191;23;19935;-93
2022/03/05 15:55:05;;;;;;;;;;;230.60;1305.60;;;;;;6222400;23;19903;-92
2022/03/05 15:57:31;;;;;;;;;;;;;;;;;;6222117;23;19900;-93
2022/03/05 15:59:57;;;;;;;;;;;;;;;;;;6222220;23;19899;-94
2022/03/05 16:02:25;;;;;;;;;;;230.60;1254.40;;;;;;6195080;23;20304;-94
2022/03/05 16:04:51;;;;;;;;;;;230.40;1254.40;;;;;;6191825;23;19900;-93
2022/03/05 16:07:16;;;;;;;;;;;230.40;1280.00;;;;;;6193085;23;19906;-94
2022/03/05 16:09:44;;;;;;;;;;;230.40;1280.00;;;;;;6192078;23;19919;-92
2022/03/05 16:12:09;;;;;;;;;;;205.70;1280.00;;;;;;6192109;23;19979;-92
2022/03/05 16:14:35;;;;;;;;;;;205.70;1280.00;;;;;;6192175;23;19952;-92
2022/03/05 16:17:01;;;;;;;;;;;205.70;1305.60;;;;;;6192025;23;19899;-91
2022/03/05 16:19:26;;;;;;;;;;;205.60;1305.60;;;;;;6191824;23;19906;-93
2022/03/05 16:21:52;;;;;;;;;;;205.60;1331.20;;;;;;6191726;23;19900;-93
2022/03/05 16:24:18;;;;;;;;;;;205.50;1331.20;;;;;;6191914;23;19904;-91
2022/03/05 16:26:44;;;;;;;;;;;205.50;1331.20;;;;;;6191855;23;19982;-92
2022/03/05 16:29:09;;;;;;;;;;;205.50;1331.20;;;;;;6191573;23;19991;-91
2022/03/05 16:31:35;;;;;;;;;;;205.50;1331.20;;;;;;6191820;23;19904;-92
2022/03/05 16:34:01;;;;;;;;;;;205.40;1331.20;;;;;;6191751;23;19950;-94
2022/03/05 16:36:27;;;;;;;;;;;205.40;1331.20;;;;;;6191825;23;19903;-94
2022/03/05 16:38:53;;;;;;;;;;;230.50;1356.80;;;;;;6191627;23;19904;-91
2022/03/05 16:41:19;;;;;;;;;;;205.40;1356.80;;;;;;6191737;23;19900;-92
2022/03/05 16:43:44;;;;;;;;;;;205.30;1356.80;;;;;;6191751;23;20202;-92
2022/03/05 16:46:10;;;;;;;;;;;205.30;1382.40;;;;;;6191631;23;19900;-94
2022/03/05 16:48:36;;;;;;;;;;;205.30;1356.80;;;;;;6191494;23;19908;-92
2022/03/05 16:51:03;;;;;;;;;;;205.20;1382.40;;;;;;6191937;23;19911;-90
2022/03/05 16:53:28;;;;;;;;;;;205.20;1356.80;;;;;;6188250;23;20046;-94
2022/03/05 16:55:54;;;;;;;;;;;205.10;1382.40;;;;;;6189443;23;20301;-93
2022/03/05 16:58:20;;;;;;;;;;;205.10;1382.40;;;;;;6190541;23;19904;-93
2022/03/05 17:00:45;;;;;;;;;;;205.00;1382.40;;;;;;6196644;23;19911;-90
2022/03/05 17:03:11;;;;;;;;;;;204.90;1382.40;;;;;;6221194;23;19907;-91
2022/03/05 17:05:37;;;;;;;;;;;204.90;1408.00;;;;;;6220628;23;19899;-91
2022/03/05 17:08:03;;;;;;;;;;;204.80;1408.00;;;;;;6220966;23;19994;-91
2022/03/05 17:10:29;;;;;;;;;;;180.10;1408.00;;;;;;6220010;23;19911;-92
2022/03/05 17:12:55;;;;;;;;;;;180.00;1433.60;;;;;;6220373;23;19982;-92
2022/03/05 17:15:21;;;;;;;;;;;179.90;1433.60;;;;;;6220009;23;19950;-93
2022/03/05 17:17:47;;;;;;;;;;;180.00;1433.60;;;;;;6220110;23;20232;-91
2022/03/05 17:20:14;;;;;;;;;;;179.90;1433.60;;;;;;6220392;23;19899;-94
2022/03/05 17:22:40;;;;;;;;;;;179.80;1433.60;;;;;;6220843;23;19923;-92
2022/03/05 17:25:06;;;;;;;;;;;179.80;1459.20;;;;;;6221348;23;19900;-91
2022/03/05 17:27:34;;;;;;;;;;;179.90;1459.20;;;;;;6196553;23;19916;-92
2022/03/05 17:29:59;;;;;;;;;;;179.80;1459.20;;;;;;6221701;23;19958;-94
2022/03/05 17:32:25;;;;;;;;;;;179.80;1459.20;;;;;;6221715;23;19899;-93
2022/03/05 17:34:51;;;;;;;;;;;179.80;1459.20;;;;;;6221780;23;19915;-94
2022/03/05 17:37:17;;;;;;;;;;;179.80;1459.20;;;;;;6225788;23;19900;-93
2022/03/05 17:39:42;;;;;;;;;;;179.80;1459.20;;;;;;6221173;23;20312;-93
2022/03/05 17:42:08;;;;;;;;;;;179.70;1459.20;;;;;;6221343;23;19900;-94
2022/03/05 17:44:34;;;;;;;;;;;179.70;1484.80;;;;;;6223650;23;19950;-90
2022/03/05 17:47:00;;;;;;;;;;;179.60;1484.80;;;;;;6221388;23;19899;-94
2022/03/05 17:49:30;;;;;;;;;;;179.50;1510.40;;;;;;6220797;23;20281;-94
2022/03/05 17:51:56;;;;;;;;;;;179.40;1510.40;;;;;;6221410;23;20367;-92
2022/03/05 17:54:22;;;;;;;;;;;179.40;1510.40;;;;;;6221336;23;19903;-94
2022/03/05 17:56:48;;;;;;;;;;;179.30;1536.00;;;;;;6221921;23;20284;-91
2022/03/05 17:59:15;;;;;;;;;;;179.20;1536.00;;;;;;6226477;23;19935;-91
2022/03/05 18:01:42;;;;;;;;;;;179.20;1536.00;;;;;;6220958;23;19911;-92
2022/03/05 18:04:09;;;;;;;;;;;154.50;1536.00;;;;;;6221461;23;20344;-91
2022/03/05 18:06:35;;;;;;;;;;;154.50;1561.60;;;;;;6220992;23;19934;-90
2022/03/05 18:09:01;;;;;;;;;;;154.50;1536.00;;;;;;6221319;23;19930;-92
2022/03/05 18:11:27;;;;;;;;;;;154.40;1536.00;;;;;;6221546;23;19906;-91
2022/03/05 18:13:53;;;;;;;;;;;154.40;1561.60;;;;;;6222171;23;19931;-93
2022/03/05 18:16:18;;;;;;;;;;;154.40;1561.60;;;;;;6222353;23;19903;-90
2022/03/05 18:18:44;;;;;;;;;;;154.30;1561.60;;;;;;6223983;23;19899;-93
2022/03/05 18:21:09;;;;;;;;;;;154.30;1561.60;;;;;;6220554;23;19906;-91
2022/03/05 18:23:35;;;;;;;;;;;154.30;1561.60;;;;;;6221360;23;19927;-95
2022/03/05 18:26:01;;;;;;;;;;;154.20;1561.60;;;;;;6221913;23;20210;-91
2022/03/05 18:28:27;;;;;;;;;;;154.20;1561.60;;;;;;6221364;23;19911;-91
2022/03/05 18:30:52;;;;;;;;;;;154.20;1561.60;;;;;;6223244;23;19906;-93
2022/03/05 18:33:18;;;;;;;;;;;154.20;1561.60;;;;;;6222566;23;19959;-91
2022/03/05 18:35:44;;;;;;;;;;;154.10;1561.60;;;;;;6222687;23;19899;-92
2022/03/05 18:38:09;;;;;;;;;;;154.10;1561.60;;;;;;6220273;23;19900;-93
2022/03/05 18:40:35;;;;;;;;;;;154.10;1561.60;;;;;;6222005;23;19903;-93
2022/03/05 18:43:01;;;;;;;;;;;154.00;1536.00;;;;;;6222388;23;19900;-90
2022/03/05 18:45:27;;;;;;;;;;;153.90;1561.60;;;;;;6222510;23;19904;-90
2022/03/05 18:47:54;;;;;;;;;;;153.80;1561.60;;;;;;6222971;23;19907;-91
2022/03/05 18:50:19;;;;;;;;;;;153.80;1561.60;;;;;;6222554;23;19926;-91
2022/03/05 18:52:45;;;;;;;;;;;153.60;1587.20;;;;;;6224581;23;19939;-92
2022/03/05 18:55:11;;;;;;;;;;;153.60;1587.20;;;;;;6221772;23;19906;-91
2022/03/05 18:57:37;;;;;;;;;;;153.60;1587.20;;;;;;6223584;23;19939;-93
2022/03/05 19:00:04;;;;;;;;;;;128.90;1587.20;;;;;;6224440;23;19982;-91
2022/03/05 19:02:29;;;;;;;;;;;128.90;1587.20;;;;;;6223809;23;19919;-92
2022/03/05 19:04:55;;;;;;;;;;;128.80;1587.20;;;;;;6224499;23;19900;-93
2022/03/05 19:07:21;;;;;;;;;;;128.70;1612.80;;;;;;6222834;23;19900;-91
2022/03/05 19:09:46;;;;;;;;;;;128.70;1612.80;;;;;;6222218;23;19914;-91
2022/03/05 19:12:12;;;;;;;;;;;128.60;1587.20;;;;;;6222498;23;20360;-92
2022/03/05 19:14:40;;;;;;;;;;;128.60;1587.20;;;;;;6222273;23;19906;-92
2022/03/05 19:17:06;;;;;;;;;;;128.50;1587.20;;;;;;6223504;23;19906;-91
2022/03/05 19:19:31;;;;;;;;;;;128.50;1612.80;;;;;;6223663;23;19931;-91
2022/03/05 19:21:59;;;;;;;;;;;128.50;1587.20;;;;;;6223430;23;20045;-91
2022/03/05 19:24:25;;;;;;;;;;;128.40;1612.80;;;;;;6224375;23;19906;-89
2022/03/05 19:26:50;;;;;;;;;;;128.40;1612.80;;;;;;6224147;23;19930;-88
2022/03/05 19:29:16;;;;;;;;;;;128.40;1612.80;;;;;;6223847;23;19930;-88
2022/03/05 19:31:43;;;;;;;;;;;128.30;1612.80;;;;;;6223469;23;19904;-90
2022/03/05 19:34:09;;;;;;;;;;;128.20;1612.80;;;;;;6223892;23;19900;-91
2022/03/05 19:36:36;;;;;;;;;;;128.20;1612.80;;;;;;6225410;23;19906;-91
2022/03/05 19:39:02;;;;;;;;;;;128.20;1612.80;;;;;;6225430;23;19926;-95
2022/03/05 19:41:29;;;;;;;;;;;128.20;1612.80;;;;;;6223100;23;19899;-91
2022/03/05 19:43:55;;;;;;;;;;;128.00;1612.80;;;;;;6223204;23;19903;-92
2022/03/05 19:46:21;;;;;;;;;;;103.30;1612.80;;;;;;6226058;23;20214;-92
2022/03/05 19:48:46;;;;;;;;;;;103.30;1612.80;;;;;;6225219;23;19908;-91
2022/03/05 19:51:12;;;;;;;;;;;103.30;1612.80;;;;;;6222973;23;19903;-91
2022/03/05 19:53:38;;;;;;;;;;;103.20;1612.80;;;;;;6222660;23;19945;-91
2022/03/05 19:56:03;;;;;;;;;;;103.20;1612.80;;;;;;6223579;23;19899;-93
2022/03/05 19:58:29;;;;;;;;;;;103.20;1612.80;;;;;;6223367;23;19899;-90
2022/03/05 20:00:55;;;;;;;;;;;103.10;1612.80;;;;;;6221283;23;20335;-91
2022/03/05 20:03:20;;;;;;;;;;;103.10;1638.40;;;;;;6222305;23;19904;-93
2022/03/05 20:05:46;;;;;;;;;;;103.10;1638.40;;;;;;6220869;23;19978;-93
2022/03/05 20:08:12;;;;;;;;;;;103.00;1638.40;;;;;;6221408;23;19947;-92
2022/03/05 20:10:37;;;;;;;;;;;103.00;1638.40;;;;;;6220697;23;20369;-93
2022/03/05 20:13:03;;;;;;;;;;;102.90;1638.40;;;;;;6221327;23;19953;-93
2022/03/05 20:15:29;;;;;;;;;;;102.90;1638.40;;;;;;6221882;23;20305;-91
2022/03/05 20:17:56;;;;;;;;;;;102.90;1664.00;;;;;;6222098;23;19947;-92
2022/03/05 20:20:22;;;;;;;;;;;102.80;1664.00;;;;;;6221681;23;19899;-91
2022/03/05 20:22:48;;;;;;;;;;;102.80;1664.00;;;;;;6222177;23;19900;-91
2022/03/05 20:25:15;;;;;;;;;;;102.60;1664.00;;;;;;6221832;23;19969;-92
2022/03/05 20:27:40;;;;;;;;;;;102.70;1664.00;;;;;;6221419;23;19899;-91
2022/03/05 20:30:07;;;;;;;;;;;102.60;1664.00;;;;;;6220669;23;19907;-90
2022/03/05 20:32:34;;;;;;;;;;;102.60;1664.00;;;;;;6221726;23;19900;-93
2022/03/05 20:35:00;;;;;;;;;;;103.20;1689.60;;;;;;6221844;23;19899;-90
2022/03/05 20:37:26;;;;;;;;;;;102.60;1689.60;;;;;;6221399;23;20006;-92
2022/03/05 20:39:52;;;;;;;;;;;102.60;1689.60;;;;;;6221822;23;19904;-91
2022/03/05 20:42:22;;;;;;;;;;;102.90;1689.60;;;;;;6224320;23;19907;-92
2022/03/05 20:47:32;;;;;;;;;;;102.50;1715.20;;;;;;6256128;22;19916;-91
2022/03/05 20:49:57;;;;;;;;;;;102.40;1715.20;;;;;;6225961;23;19906;-92
2022/03/05 20:52:26;;;;;;;;;;;77.70;1715.20;;;;;;6251555;23;20301;-91
2022/03/05 20:54:51;;;;;;;;;;;77.70;1715.20;;;;;;6221666;23;19899;-91
2022/03/05 21:00:18;;;;;;;;;;;77.60;1740.80;;;;;;6255175;22;19915;-90
2022/03/05 21:02:44;;;;;;;;;;;77.50;1740.80;;;;;;6244467;22;19887;-90
2022/03/05 21:05:30;;;;;;;;;;;77.50;1740.80;;;;;;6239543;23;19895;-90
2022/03/05 21:08:15;;;;;;;;;;;77.50;1740.80;;;;;;6245895;23;19911;-87
